Time;durP1;ratioP1;P1;durP2;ratioP2;P2;SDS_P1;SDS_P2;PMS_P1;PMS_P2;Temp;Humidity;BMP_temperature;BMP_pressure;BME280_temperature;BME280_humidity;BME280_pressure;Samples;Min_cycle;Max_cycle;Signal;HPM_P1;HPM_P2
2023/06/28 00:00:39;;;;;;;4.05;1.33;;;;;;;18.26;50.58;97452.78;4927002;29;20427;-57
2023/06/28 00:03:10;;;;;;;3.40;1.15;;;;;;;18.12;51.37;97452.75;4926452;29;20119;-57
2023/06/28 00:05:37;;;;;;;4.22;1.27;;;;;;;18.12;51.03;97441.78;4929893;29;20205;-57
2023/06/28 00:08:04;;;;;;;4.47;1.30;;;;;;;18.14;51.06;97445.06;4928766;29;20051;-55
2023/06/28 00:10:31;;;;;;;7.22;1.60;;;;;;;18.03;51.19;97450.66;4926780;29;20040;-55
2023/06/28 00:12:57;;;;;;;4.38;1.70;;;;;;;18.14;50.95;97445.84;4928212;29;20640;-56
2023/06/28 00:15:24;;;;;;;3.83;1.45;;;;;;;18.17;50.90;97444.47;4927193;29;20036;-58
2023/06/28 00:17:51;;;;;;;7.47;1.40;;;;;;;18.16;51.70;97448.31;4928887;29;20064;-58
2023/06/28 00:20:17;;;;;;;6.18;1.35;;;;;;;18.19;51.21;97456.75;4921799;29;20687;-58
2023/06/28 00:22:44;;;;;;;4.75;1.90;;;;;;;18.24;50.82;97449.56;4927202;29;20136;-58
2023/06/28 00:25:10;;;;;;;7.47;1.83;;;;;;;18.12;51.72;97448.09;4928710;29;20044;-58
2023/06/28 00:27:37;;;;;;;2.95;1.20;;;;;;;18.12;51.50;97445.34;4930637;29;20054;-58
2023/06/28 00:30:06;;;;;;;5.82;1.48;;;;;;;18.03;52.17;97456.13;4926134;29;20056;-58
2023/06/28 00:32:32;;;;;;;5.05;1.70;;;;;;;18.04;51.71;97452.31;4931058;29;20063;-58
2023/06/28 00:34:59;;;;;;;3.60;1.45;;;;;;;18.04;51.91;97451.50;4914361;29;20051;-57
2023/06/28 00:37:25;;;;;;;3.58;1.30;;;;;;;18.02;52.56;97453.72;4928693;29;20047;-57
2023/06/28 00:39:52;;;;;;;4.32;1.40;;;;;;;17.91;52.83;97450.34;4927588;29;20619;-58
2023/06/28 00:42:18;;;;;;;3.65;1.42;;;;;;;17.91;53.43;97450.34;4927091;29;20043;-57
2023/06/28 00:44:46;;;;;;;3.00;1.17;;;;;;;17.87;53.79;97452.84;4925580;29;20040;-58
2023/06/28 00:47:14;;;;;;;4.82;1.48;;;;;;;17.72;53.90;97448.41;4926723;29;20078;-57
2023/06/28 00:49:42;;;;;;;11.20;1.80;;;;;;;17.78;54.05;97446.41;4928089;29;20511;-58
2023/06/28 00:52:10;;;;;;;5.35;1.40;;;;;;;17.89;53.85;97458.84;4925344;29;20058;-58
2023/06/28 00:54:37;;;;;;;3.53;1.50;;;;;;;17.81;54.58;97465.78;4942006;28;20147;-57
2023/06/28 00:57:05;;;;;;;6.95;1.75;;;;;;;17.66;55.49;97463.31;4927250;29;20110;-57
2023/06/28 00:59:32;;;;;;;3.83;1.30;;;;;;;17.71;54.46;97470.63;4925155;29;20047;-57
2023/06/28 01:01:59;;;;;;;4.72;1.45;;;;;;;17.67;54.91;97476.72;4927287;29;20123;-56
2023/06/28 01:04:25;;;;;;;4.20;1.45;;;;;;;17.74;55.44;97475.50;4929613;29;20403;-57
2023/06/28 01:06:54;;;;;;;5.07;1.50;;;;;;;17.65;55.61;97472.59;4924361;29;20055;-58
2023/06/28 01:09:23;;;;;;;6.00;1.33;;;;;;;17.60;55.66;97473.50;4925670;29;20118;-57
2023/06/28 01:11:51;;;;;;;3.80;1.40;;;;;;;17.68;54.91;97478.31;4924428;29;20126;-57
2023/06/28 01:14:19;;;;;;;4.50;1.27;;;;;;;17.69;55.63;97479.13;4924561;29;20050;-57
2023/06/28 01:16:54;;;;;;;5.93;1.58;;;;;;;17.70;55.87;97475.28;4925230;29;20047;-56
2023/06/28 01:19:26;;;;;;;5.55;1.83;;;;;;;17.75;53.93;97472.47;4928908;29;20036;-58
2023/06/28 01:22:09;;;;;;;6.50;1.63;;;;;;;17.83;53.70;97475.66;4926166;29;20075;-58
2023/06/28 01:24:36;;;;;;;4.45;1.38;;;;;;;17.94;53.27;97474.38;4924548;29;20056;-57
2023/06/28 01:27:04;;;;;;;4.63;1.70;;;;;;;17.89;53.13;97475.28;4931198;29;20050;-58
2023/06/28 01:29:31;;;;;;;4.43;1.38;;;;;;;17.93;53.03;97470.00;4926304;29;20415;-57
2023/06/28 01:31:58;;;;;;;4.55;1.50;;;;;;;17.96;53.73;97477.66;4925382;29;20066;-57
2023/06/28 01:34:26;;;;;;;2.95;1.27;;;;;;;17.96;52.97;97468.59;4921104;29;20123;-58
2023/06/28 01:36:56;;;;;;;3.97;1.60;;;;;;;17.95;53.65;97470.53;4926748;29;20515;-58
2023/06/28 01:39:24;;;;;;;4.75;1.70;;;;;;;17.88;53.98;97475.56;4927459;29;20082;-58
2023/06/28 01:41:51;;;;;;;4.07;1.40;;;;;;;17.91;54.74;97464.03;4926363;29;20054;-57
2023/06/28 01:44:18;;;;;;;6.05;1.65;;;;;;;17.90;54.14;97470.59;4926266;29;20162;-58
2023/06/28 01:46:46;;;;;;;5.05;1.52;;;;;;;17.86;53.74;97472.31;4917842;29;20071;-58
2023/06/28 01:49:13;;;;;;;5.13;1.63;;;;;;;17.86;53.75;97469.56;4922550;28;20031;-58
2023/06/28 01:51:40;;;;;;;3.95;1.40;;;;;;;17.85;54.24;97470.69;4924575;29;20059;-58
2023/06/28 01:54:07;;;;;;;6.72;1.50;;;;;;;17.81;55.13;97465.78;4920915;29;20047;-57
2023/06/28 01:56:33;;;;;;;5.75;1.77;;;;;;;17.79;55.10;97467.22;4923005;29;20115;-58
2023/06/28 01:59:00;;;;;;;5.70;1.75;;;;;;;17.77;54.92;97475.72;4918413;29;20036;-57
2023/06/28 02:01:27;;;;;;;5.07;1.55;;;;;;;17.75;54.97;97472.47;4922499;29;20032;-57
2023/06/28 02:03:54;;;;;;;4.65;2.47;;;;;;;17.74;54.81;97473.59;4924616;29;20071;-57
2023/06/28 02:06:21;;;;;;;4.88;1.73;;;;;;;17.76;55.12;97476.03;4919641;29;20040;-57
2023/06/28 02:08:48;;;;;;;3.13;1.20;;;;;;;17.46;59.95;97475.38;4923257;29;20467;-56
2023/06/28 02:11:14;;;;;;;4.50;1.45;;;;;;;16.85;63.75;97470.31;4936655;28;20044;-57
2023/06/28 02:13:41;;;;;;;4.18;1.80;;;;;;;16.51;64.99;97463.81;4936447;28;20050;-57
2023/06/28 02:16:07;;;;;;;7.40;1.85;;;;;;;16.47;65.54;97457.34;4922328;29;20510;-57
2023/06/28 02:18:34;;;;;;;4.78;1.35;;;;;;;16.30;64.24;97461.31;4917257;29;20042;-56
2023/06/28 02:21:01;;;;;;;5.63;1.40;;;;;;;16.22;64.19;97460.00;4922734;29;20078;-55
2023/06/28 02:23:28;;;;;;;5.82;1.60;;;;;;;16.11;66.00;97459.28;4925169;29;20120;-57
2023/06/28 02:25:54;;;;;;;4.50;1.55;;;;;;;16.12;65.93;97460.09;4922084;29;20072;-58
2023/06/28 02:28:24;;;;;;;7.35;1.80;;;;;;;16.14;65.73;97470.75;4931308;29;20047;-58
2023/06/28 02:30:51;;;;;;;5.82;1.60;;;;;;;16.10;65.47;97460.38;4923880;28;20685;-58
2023/06/28 02:33:21;;;;;;;6.85;1.95;;;;;;;15.86;67.10;97463.00;4924155;29;20039;-56
2023/06/28 02:35:48;;;;;;;3.58;1.85;;;;;;;15.77;67.64;97467.44;4922471;29;20056;-58
2023/06/28 02:38:14;;;;;;;5.70;2.25;;;;;;;15.85;68.29;97467.63;4922970;29;20043;-58
2023/06/28 02:40:41;;;;;;;5.30;1.73;;;;;;;15.91;67.17;97462.97;4921765;29;20518;-57
2023/06/28 02:43:07;;;;;;;5.50;1.75;;;;;;;15.95;66.70;97464.06;4920589;29;20068;-58
2023/06/28 02:45:34;;;;;;;4.78;1.77;;;;;;;15.93;67.01;97460.78;4939742;28;20055;-58
2023/06/28 02:48:01;;;;;;;6.20;1.90;;;;;;;15.80;67.45;97464.94;4920330;29;20544;-57
2023/06/28 02:50:27;;;;;;;5.30;1.52;;;;;;;15.89;67.61;97462.44;4937879;28;20079;-57
2023/06/28 02:53:00;;;;;;;5.22;1.60;;;;;;;15.90;67.18;97463.25;4918392;29;20048;-58
2023/06/28 02:55:27;;;;;;;4.80;1.67;;;;;;;15.88;67.16;97462.72;4927660;29;20043;-58
2023/06/28 02:57:55;;;;;;;5.88;2.10;;;;;;;15.79;69.52;97459.78;4919509;29;20052;-56
2023/06/28 03:00:22;;;;;;;5.25;1.90;;;;;;;15.78;69.69;97456.25;4927045;29;20042;-56
2023/06/28 03:02:48;;;;;;;6.43;2.03;;;;;;;15.84;68.81;97457.81;4929541;29;20051;-57
2023/06/28 03:05:15;;;;;;;3.75;1.55;;;;;;;15.81;68.47;97461.13;4922479;29;20442;-58
2023/06/28 03:07:42;;;;;;;5.00;1.55;;;;;;;15.86;68.29;97460.28;4929231;29;20043;-56
2023/06/28 03:10:09;;;;;;;6.93;1.83;;;;;;;15.84;68.60;97463.28;4938522;28;20047;-58
2023/06/28 03:12:35;;;;;;;3.88;2.28;;;;;;;15.79;68.68;97459.78;4922182;29;20079;-57
2023/06/28 03:15:02;;;;;;;5.20;2.42;;;;;;;15.79;69.17;97457.03;4922903;29;20561;-57
2023/06/28 03:17:29;;;;;;;4.75;1.80;;;;;;;15.82;68.68;97462.75;4924903;29;20538;-57
2023/06/28 03:19:56;;;;;;;4.15;1.50;;;;;;;15.86;68.90;97458.34;4928465;29;20115;-54
2023/06/28 03:22:22;;;;;;;2.95;1.50;;;;;;;15.86;68.83;97463.81;4923857;29;20048;-56
2023/06/28 03:24:49;;;;;;;4.63;1.50;;;;;;;15.83;69.11;97463.56;4925988;29;20056;-57
2023/06/28 03:27:16;;;;;;;6.07;1.50;;;;;;;15.88;69.11;97466.25;4927886;29;20134;-56
2023/06/28 03:29:43;;;;;;;3.67;1.58;;;;;;;15.84;69.37;97455.09;4926763;29;20044;-58
2023/06/28 03:32:09;;;;;;;4.72;1.63;;;;;;;15.89;69.39;97470.63;4923504;29;20047;-58
2023/06/28 03:34:36;;;;;;;6.35;1.80;;;;;;;15.92;69.39;97461.84;4924222;29;20071;-58
2023/06/28 03:37:03;;;;;;;7.50;1.80;;;;;;;15.93;69.43;97457.22;4921797;29;20098;-57
2023/06/28 03:39:31;;;;;;;6.18;2.10;;;;;;;15.90;69.23;97455.06;4925888;29;20107;-57
2023/06/28 03:41:58;;;;;;;6.18;1.67;;;;;;;15.82;69.83;97456.47;4938641;28;20043;-58
2023/06/28 03:44:25;;;;;;;4.10;1.73;;;;;;;15.84;69.46;97455.09;4923229;29;20058;-58
2023/06/28 03:46:52;;;;;;;3.92;1.58;;;;;;;15.86;69.72;97452.09;4920570;29;20444;-58
2023/06/28 03:49:20;;;;;;;5.93;1.88;;;;;;;15.80;70.13;97455.94;4924622;29;20364;-57
2023/06/28 03:51:46;;;;;;;7.47;2.03;;;;;;;15.85;70.27;97458.66;4920023;29;20052;-58
2023/06/28 03:54:13;;;;;;;3.47;1.60;;;;;;;15.82;70.51;97451.81;4922901;29;20071;-57
2023/06/28 03:56:42;;;;;;;3.70;1.58;;;;;;;15.62;71.48;97444.59;4922106;29;20510;-57
2023/06/28 03:59:08;;;;;;;3.03;1.63;;;;;;;15.54;71.35;97459.66;4919726;29;20040;-58
2023/06/28 04:01:35;;;;;;;5.75;1.92;;;;;;;15.48;71.84;97452.59;4923407;29;20036;-56
2023/06/28 04:04:02;;;;;;;5.10;2.40;;;;;;;15.52;71.48;97450.94;4918964;29;20044;-57
2023/06/28 04:06:28;;;;;;;4.35;1.55;;;;;;;15.70;70.40;97445.94;4922783;29;20048;-57
2023/06/28 04:08:55;;;;;;;4.75;1.52;;;;;;;15.88;69.27;97451.81;4924270;29;20040;-57
2023/06/28 04:11:21;;;;;;;8.73;2.20;;;;;;;16.09;67.64;97458.75;4917865;29;20266;-58
2023/06/28 04:13:48;;;;;;;6.07;1.75;;;;;;;16.20;67.10;97459.50;4921737;28;20059;-57
2023/06/28 04:16:14;;;;;;;4.53;1.83;;;;;;;16.27;66.19;97453.69;4926943;28;20454;-57
2023/06/28 04:18:41;;;;;;;4.80;1.73;;;;;;;16.31;65.80;97459.38;4921550;29;20055;-57
2023/06/28 04:21:07;;;;;;;4.13;1.83;;;;;;;16.43;66.53;97457.06;4920285;29;20543;-57
2023/06/28 04:23:34;;;;;;;5.95;1.70;;;;;;;16.42;66.76;97455.47;4915328;29;20115;-57
2023/06/28 04:26:00;;;;;;;4.53;1.77;;;;;;;16.48;67.97;97467.94;4928290;29;20048;-57
2023/06/28 04:28:27;;;;;;;9.43;2.50;;;;;;;16.35;66.18;97458.53;4928728;29;20043;-58
2023/06/28 04:30:53;;;;;;;7.05;2.00;;;;;;;16.15;68.10;97459.53;4925845;29;20075;-56
2023/06/28 04:33:22;;;;;;;5.72;1.70;;;;;;;16.22;68.92;97468.19;4929661;29;21507;-58
2023/06/28 04:35:49;;;;;;;8.70;1.70;;;;;;;16.28;68.15;97470.91;4923599;29;20059;-58
2023/06/28 04:38:19;;;;;;;4.93;1.88;;;;;;;16.29;69.42;97470.59;4922344;29;20055;-58
2023/06/28 04:40:47;;;;;;;5.22;2.28;;;;;;;16.12;69.95;97474.59;4922015;29;20054;-58
2023/06/28 04:43:14;;;;;;;7.35;2.03;;;;;;;16.13;69.79;97472.66;4925438;29;20515;-57
2023/06/28 04:45:41;;;;;;;3.65;1.60;;;;;;;16.29;69.15;97481.53;4925460;29;20057;-58
2023/06/28 04:48:07;;;;;;;6.65;1.52;;;;;;;16.15;69.79;97478.66;4927898;28;20106;-58
2023/06/28 04:50:36;;;;;;;5.20;1.70;;;;;;;16.35;69.42;97479.56;4922450;29;20054;-57
2023/06/28 04:53:04;;;;;;;5.47;2.10;;;;;;;16.28;73.88;97479.91;4923432;29;20074;-59
2023/06/28 04:55:32;;;;;;;5.25;1.60;;;;;;;16.30;70.04;97482.34;4923631;29;20075;-58
2023/06/28 04:58:03;;;;;;;6.30;1.90;;;;;;;16.37;69.44;97480.91;4928163;29;20050;-57
2023/06/28 05:00:31;;;;;;;6.97;2.05;;;;;;;16.43;68.99;97478.94;4924845;29;20087;-58
2023/06/28 05:03:00;;;;;;;4.05;1.65;;;;;;;16.58;67.88;97479.91;4920430;29;20048;-58
2023/06/28 05:05:27;;;;;;;5.22;1.67;;;;;;;16.74;67.39;97477.81;4918280;29;20421;-58
2023/06/28 05:07:54;;;;;;;5.63;1.92;;;;;;;16.87;64.83;97482.59;4925283;29;20411;-58
2023/06/28 05:10:23;;;;;;;6.65;1.75;;;;;;;16.91;68.57;97480.09;4928964;29;20039;-59
2023/06/28 05:12:51;;;;;;;3.78;1.75;;;;;;;17.12;64.77;97477.16;4921413;29;20123;-57
2023/06/28 05:15:18;;;;;;;4.10;1.42;;;;;;;17.24;62.21;97477.53;4920735;29;20047;-57
2023/06/28 05:17:45;;;;;;;6.22;1.67;;;;;;;17.36;61.81;97473.56;4920199;29;20058;-57
2023/06/28 05:20:12;;;;;;;5.70;1.90;;;;;;;17.43;61.13;97482.22;4923708;29;20050;-57
2023/06/28 05:22:48;;;;;;;6.80;2.17;;;;;;;17.54;59.61;97480.16;4923925;29;20051;-56
2023/06/28 05:25:15;;;;;;;5.07;1.45;;;;;;;17.66;60.02;97468.78;4925240;29;20047;-54
2023/06/28 05:27:42;;;;;;;5.32;1.73;;;;;;;17.51;60.40;97476.09;4924944;29;20145;-55
2023/06/28 05:30:09;;;;;;;4.10;1.60;;;;;;;17.61;60.90;97471.59;4920504;29;20059;-55
2023/06/28 05:32:36;;;;;;;6.03;1.85;;;;;;;17.61;60.95;97483.34;4923931;29;20102;-56
2023/06/28 05:35:03;;;;;;;3.58;1.50;;;;;;;17.69;59.91;97479.13;4921617;29;20054;-55
2023/06/28 05:37:29;;;;;;;5.68;1.80;;;;;;;17.54;60.54;97483.72;4927984;28;20114;-55
2023/06/28 05:39:56;;;;;;;4.40;1.80;;;;;;;17.59;59.85;97488.31;4924604;29;20052;-57
2023/06/28 05:42:23;;;;;;;8.02;2.78;;;;;;;17.66;59.58;97479.72;4916572;29;20066;-57
2023/06/28 05:44:50;;;;;;;5.45;1.73;;;;;;;17.70;58.93;97478.03;4921481;29;20058;-57
2023/06/28 05:47:16;;;;;;;7.10;2.13;;;;;;;17.77;58.72;97477.66;4923961;29;20051;-56
2023/06/28 05:49:43;;;;;;;5.00;1.73;;;;;;;17.92;59.56;97468.41;4926333;29;20043;-58
2023/06/28 05:52:09;;;;;;;6.75;1.50;;;;;;;17.96;59.43;97471.34;4921402;29;20048;-57
2023/06/28 05:54:36;;;;;;;6.30;1.80;;;;;;;18.04;58.15;97470.66;4924776;29;20188;-57
2023/06/28 05:57:03;;;;;;;9.25;1.85;;;;;;;18.01;57.59;97472.06;4928695;29;20047;-56
2023/06/28 05:59:31;;;;;;;4.93;1.90;;;;;;;18.08;55.98;97466.25;4921839;29;20059;-57
2023/06/28 06:01:57;;;;;;;5.15;1.80;;;;;;;18.14;57.13;97477.94;4922235;29;20067;-57
2023/06/28 06:04:24;;;;;;;6.55;1.58;;;;;;;18.12;56.71;97480.16;4924577;29;20443;-59
2023/06/28 06:06:50;;;;;;;14.55;2.40;;;;;;;18.10;56.82;97472.25;4917739;29;20131;-58
2023/06/28 06:09:17;;;;;;;3.63;1.55;;;;;;;18.19;56.14;97475.09;4925409;29;20046;-58
2023/06/28 06:11:44;;;;;;;3.58;1.52;;;;;;;18.18;56.28;97468.00;4928606;29;20130;-58
2023/06/28 06:14:11;;;;;;;10.02;2.00;;;;;;;18.11;57.44;97470.31;4923727;28;20052;-59
2023/06/28 06:16:37;;;;;;;7.47;1.67;;;;;;;18.27;56.50;97474.44;4921926;29;20055;-58
2023/06/28 06:19:04;;;;;;;3.47;1.55;;;;;;;18.33;54.97;97477.91;4927225;29;20069;-59
2023/06/28 06:21:30;;;;;;;4.90;1.70;;;;;;;18.32;53.94;97468.06;4924274;29;20032;-58
2023/06/28 06:23:59;;;;;;;4.13;1.60;;;;;;;18.47;53.64;97475.19;4924257;29;20051;-58
2023/06/28 06:26:27;;;;;;;6.03;1.63;;;;;;;18.37;54.08;97472.63;4926673;29;20047;-57
2023/06/28 06:28:53;;;;;;;3.53;1.58;;;;;;;18.43;53.99;97479.66;4929009;29;20053;-58
2023/06/28 06:31:20;;;;;;;3.13;1.67;;;;;;;18.53;54.31;97481.38;4927250;29;20065;-58
2023/06/28 06:33:47;;;;;;;2.78;1.20;;;;;;;18.68;53.33;97475.63;4929329;29;20129;-57
2023/06/28 06:36:13;;;;;;;4.47;1.40;;;;;;;18.47;53.50;97480.69;4929357;29;20106;-56
2023/06/28 06:38:40;;;;;;;12.10;2.45;;;;;;;18.56;53.15;97486.25;4929477;29;20633;-58
2023/06/28 06:41:07;;;;;;;7.85;1.70;;;;;;;18.77;52.47;97486.72;4929976;29;20042;-55
2023/06/28 06:43:34;;;;;;;5.68;1.70;;;;;;;18.85;51.62;97486.00;4928388;29;20044;-58
2023/06/28 06:46:00;;;;;;;4.05;1.60;;;;;;;18.60;53.47;97484.53;4927889;29;20040;-59
2023/06/28 06:48:27;;;;;;;5.55;1.75;;;;;;;18.75;52.42;97483.44;4929981;29;20047;-58
2023/06/28 06:50:53;;;;;;;5.28;1.50;;;;;;;18.95;50.83;97495.16;4930072;29;20036;-58
2023/06/28 06:53:20;;;;;;;4.68;1.70;;;;;;;18.85;51.38;97493.41;4929505;29;20048;-56
2023/06/28 06:55:47;;;;;;;9.90;1.70;;;;;;;18.94;51.54;97490.81;4926617;29;20062;-58
2023/06/28 06:58:13;;;;;;;5.35;1.50;;;;;;;18.96;50.64;97492.13;4929166;29;20086;-57
2023/06/28 07:00:40;;;;;;;7.40;1.88;;;;;;;19.09;50.54;97492.47;4928799;29;20055;-58
2023/06/28 07:03:07;;;;;;;3.95;1.33;;;;;;;19.13;49.75;97490.72;4929087;29;20051;-58
2023/06/28 07:05:34;;;;;;;5.47;1.73;;;;;;;19.22;49.51;97491.63;4925747;29;20123;-58
2023/06/28 07:08:00;;;;;;;3.13;1.30;;;;;;;19.34;49.94;97491.09;4925540;29;20122;-58
2023/06/28 07:10:27;;;;;;;4.20;1.60;;;;;;;19.22;50.24;97497.13;4929619;29;20040;-55
2023/06/28 07:12:53;;;;;;;6.88;1.77;;;;;;;19.35;49.61;97494.69;4929116;29;20058;-58
2023/06/28 07:15:20;;;;;;;4.25;1.40;;;;;;;19.28;50.24;97497.84;4933264;29;20043;-58
2023/06/28 07:17:46;;;;;;;4.35;1.20;;;;;;;19.32;50.12;97495.28;4928500;29;20044;-58
2023/06/28 07:20:13;;;;;;;16.98;2.78;;;;;;;19.09;50.87;97496.00;4927437;29;20039;-57
2023/06/28 07:22:39;;;;;;;5.68;1.50;;;;;;;19.27;51.26;97503.63;4927942;29;20055;-58
2023/06/28 07:25:06;;;;;;;6.10;1.80;;;;;;;19.40;49.03;97501.97;4928650;29;20044;-57
2023/06/28 07:27:33;;;;;;;2.83;1.30;;;;;;;19.58;49.05;97494.72;4929842;29;20051;-58
2023/06/28 07:29:59;;;;;;;5.90;1.92;;;;;;;19.55;49.06;97501.66;4928471;29;20039;-58
2023/06/28 07:32:26;;;;;;;5.45;1.55;;;;;;;19.66;48.73;97501.41;4926771;29;20056;-58
2023/06/28 07:34:54;;;;;;;9.50;1.67;;;;;;;19.53;47.96;97505.84;4928629;29;20047;-58
2023/06/28 07:37:22;;;;;;;5.90;1.30;;;;;;;19.59;48.67;97505.41;4928043;29;20035;-58
2023/06/28 07:39:48;;;;;;;5.35;1.48;;;;;;;19.61;48.25;97502.34;4927715;29;20078;-58
2023/06/28 07:42:15;;;;;;;5.45;1.60;;;;;;;19.74;47.87;97500.69;4928334;29;20036;-57
2023/06/28 07:44:43;;;;;;;4.95;1.40;;;;;;;19.76;48.56;97509.44;4930130;29;20130;-58
2023/06/28 07:47:10;;;;;;;5.07;1.80;;;;;;;19.68;48.93;97507.44;4928176;29;20040;-56
2023/06/28 07:49:36;;;;;;;6.15;1.65;;;;;;;19.87;47.53;97502.56;4925470;29;20036;-58
2023/06/28 07:52:04;;;;;;;4.60;1.63;;;;;;;20.08;46.99;97504.88;4923958;29;20052;-59
2023/06/28 07:54:30;;;;;;;5.38;1.50;;;;;;;20.18;46.16;97505.75;4923341;29;20054;-58
2023/06/28 07:57:00;;;;;;;5.03;1.50;;;;;;;20.16;45.20;97503.31;4923985;29;20526;-58
2023/06/28 07:59:27;;;;;;;4.93;1.45;;;;;;;20.09;45.72;97503.75;4925458;29;20071;-58
2023/06/28 08:01:53;;;;;;;7.07;1.75;;;;;;;20.10;45.89;97502.66;4928251;29;20647;-58
2023/06/28 08:04:20;;;;;;;4.30;1.77;;;;;;;20.26;45.01;97500.31;4926122;29;20058;-58
2023/06/28 08:06:47;;;;;;;3.78;1.38;;;;;;;20.28;45.21;97500.03;4923371;29;20123;-57
2023/06/28 08:09:14;;;;;;;5.82;2.30;;;;;;;20.39;44.25;97501.38;4925410;29;20051;-58
2023/06/28 08:11:40;;;;;;;3.88;1.50;;;;;;;20.39;44.36;97490.38;4918194;29;20495;-57
2023/06/28 08:14:07;;;;;;;4.90;1.42;;;;;;;20.50;44.90;97490.91;4924868;29;20126;-58
2023/06/28 08:16:34;;;;;;;6.07;1.60;;;;;;;20.43;45.57;97496.06;4931124;29;20122;-57
2023/06/28 08:19:01;;;;;;;3.75;1.25;;;;;;;20.18;45.79;97500.25;4928497;29;20035;-59
2023/06/28 08:21:27;;;;;;;8.10;1.42;;;;;;;20.41;45.09;97501.06;4928470;29;20051;-58
2023/06/28 08:23:54;;;;;;;7.53;2.45;;;;;;;20.46;44.24;97500.94;4926571;29;20585;-57
2023/06/28 08:26:21;;;;;;;3.25;1.40;;;;;;;20.59;44.25;97501.16;4923798;29;20418;-55
2023/06/28 08:28:47;;;;;;;7.00;1.50;;;;;;;20.48;43.96;97497.88;4925281;29;20048;-58
2023/06/28 08:31:25;;;;;;;3.85;1.42;;;;;;;20.70;45.21;97507.22;4931417;29;20101;-58
2023/06/28 08:33:52;;;;;;;10.77;1.67;;;;;;;20.92;43.40;97506.38;4921425;28;20075;-58
2023/06/28 08:36:18;;;;;;;5.20;1.48;;;;;;;20.87;43.89;97499.09;4922563;29;20054;-56
2023/06/28 08:38:45;;;;;;;4.03;1.50;;;;;;;20.90;43.28;97503.16;4923149;29;20079;-57
2023/06/28 08:41:13;;;;;;;4.38;1.60;;;;;;;20.96;42.86;97495.56;4923037;29;20066;-55
2023/06/28 08:43:43;;;;;;;5.70;1.38;;;;;;;21.04;43.90;97494.75;4921493;29;20131;-57
2023/06/28 08:46:10;;;;;;;5.05;1.50;;;;;;;21.13;43.89;97497.56;4921419;29;20051;-58
2023/06/28 08:48:37;;;;;;;3.53;1.65;;;;;;;21.40;42.78;97491.00;4926806;29;20058;-57
2023/06/28 08:51:05;;;;;;;6.10;1.42;;;;;;;21.42;42.97;97494.22;4921436;29;20039;-58
2023/06/28 08:53:33;;;;;;;5.28;1.50;;;;;;;21.52;42.81;97490.34;4920765;29;20135;-58
2023/06/28 08:56:01;;;;;;;4.60;1.80;;;;;;;21.49;41.97;97498.47;4919739;29;20051;-58
2023/06/28 08:58:29;;;;;;;5.25;1.52;;;;;;;21.64;42.20;97489.72;4926469;29;20062;-58
2023/06/28 09:00:59;;;;;;;4.57;1.40;;;;;;;21.47;41.59;97490.53;4929372;29;20043;-58
2023/06/28 09:03:26;;;;;;;5.78;1.75;;;;;;;21.11;42.92;97481.34;4926721;29;20044;-57
2023/06/28 09:05:54;;;;;;;3.80;1.10;;;;;;;21.26;42.75;97487.56;4927037;28;20047;-58
2023/06/28 09:08:21;;;;;;;4.22;1.30;;;;;;;21.34;42.77;97483.19;4920448;29;20044;-58
2023/06/28 09:10:48;;;;;;;3.97;1.20;;;;;;;21.63;41.97;97490.84;4926322;29;20414;-57
2023/06/28 09:13:22;;;;;;;3.63;1.20;;;;;;;21.88;41.34;97484.91;5065482;28;20738;-57
2023/06/28 09:15:49;;;;;;;4.35;1.45;;;;;;;21.89;41.77;97486.53;5055772;28;20053;-57
2023/06/28 09:18:15;;;;;;;3.13;1.27;;;;;;;21.94;41.73;97487.19;5060570;28;20507;-55
2023/06/28 09:20:53;;;;;;;7.20;1.52;;;;;;;22.22;41.20;97494.28;5055747;28;20045;-57
2023/06/28 09:23:24;;;;;;;5.15;1.50;;;;;;;22.37;41.25;97489.41;5057804;28;20518;-57
2023/06/28 09:25:50;;;;;;;4.30;1.42;;;;;;;22.31;40.65;97484.09;5060264;28;20048;-57
2023/06/28 09:28:17;;;;;;;5.03;1.27;;;;;;;22.26;41.18;97480.69;5058850;28;20111;-57
2023/06/28 09:30:54;;;;;;;5.80;1.45;;;;;;;22.55;40.72;97484.72;5061209;28;20044;-57
2023/06/28 09:33:22;;;;;;;3.10;1.10;;;;;;;22.84;40.52;97480.38;5057571;28;20133;-56
2023/06/28 09:35:55;;;;;;;4.03;1.30;;;;;;;22.76;40.23;97484.81;5052905;28;20060;-57
2023/06/28 09:38:23;;;;;;;6.65;1.52;;;;;;;22.42;41.14;97481.78;5053581;28;20048;-54
2023/06/28 09:40:56;;;;;;;4.97;1.30;;;;;;;22.62;42.26;97473.16;5058014;28;20054;-57
2023/06/28 09:43:23;;;;;;;4.90;1.50;;;;;;;22.66;40.95;97476.91;5057838;28;20227;-56
2023/06/28 09:45:53;;;;;;;5.60;1.50;;;;;;;22.18;42.28;97477.59;5053667;28;20388;-57
2023/06/28 09:48:25;;;;;;;6.97;1.80;;;;;;;22.42;41.00;97475.44;5060381;28;20040;-56
2023/06/28 09:50:52;;;;;;;5.22;1.52;;;;;;;21.72;41.57;97471.59;5052222;28;20422;-55
2023/06/28 09:53:21;;;;;;;5.60;1.60;;;;;;;22.01;41.89;97480.38;5051671;28;20041;-58
2023/06/28 09:55:49;;;;;;;6.85;1.63;;;;;;;21.86;42.61;97482.50;5059709;28;20119;-54
2023/06/28 09:58:18;;;;;;;6.50;1.70;;;;;;;21.95;42.26;97477.78;5053495;28;20144;-57
2023/06/28 10:00:47;;;;;;;4.32;1.35;;;;;;;21.93;42.06;97476.50;5051801;28;20585;-57
2023/06/28 10:03:16;;;;;;;7.50;1.80;;;;;;;21.77;41.59;97478.91;5062002;28;20044;-58
2023/06/28 10:05:44;;;;;;;5.05;1.60;;;;;;;21.88;42.09;97469.19;5054175;28;20048;-57
2023/06/28 10:08:16;;;;;;;6.72;1.58;;;;;;;22.17;42.35;97475.16;5059822;28;20045;-57
2023/06/28 10:10:44;;;;;;;5.32;1.58;;;;;;;22.25;41.85;97468.81;5059025;28;20045;-55
2023/06/28 10:13:14;;;;;;;7.70;1.90;;;;;;;22.31;41.25;97472.22;5057898;28;20054;-57
2023/06/28 10:15:47;;;;;;;5.43;1.42;;;;;;;22.47;41.00;97462.31;5060763;28;20651;-57
2023/06/28 10:18:14;;;;;;;5.80;1.92;;;;;;;22.64;41.07;97462.59;5057175;28;20060;-57
2023/06/28 10:20:41;;;;;;;4.65;1.63;;;;;;;22.80;40.37;97462.84;5055042;28;20511;-57
2023/06/28 10:23:12;;;;;;;4.68;2.17;;;;;;;22.92;40.33;97462.97;5052419;28;20044;-57
2023/06/28 10:25:41;;;;;;;8.52;1.52;;;;;;;22.88;40.13;97463.97;5050737;28;20052;-56
2023/06/28 10:28:09;;;;;;;5.18;1.38;;;;;;;23.03;40.14;97465.38;5047049;28;20061;-57
2023/06/28 10:30:38;;;;;;;6.97;2.00;;;;;;;22.64;40.96;97462.59;5051710;28;20494;-57
2023/06/28 10:33:05;;;;;;;6.47;1.70;;;;;;;22.58;41.12;97453.69;5045519;28;20120;-57
2023/06/28 10:35:32;;;;;;;8.85;1.73;;;;;;;22.85;40.75;97457.19;5046078;28;20075;-57
2023/06/28 10:37:59;;;;;;;4.70;1.33;;;;;;;22.95;40.23;97455.97;5046464;28;20052;-56
2023/06/28 10:40:26;;;;;;;4.65;1.63;;;;;;;22.93;41.29;97461.84;5044895;28;20058;-57
2023/06/28 10:42:53;;;;;;;3.63;1.30;;;;;;;22.80;40.24;97460.91;5039297;28;20445;-56
2023/06/28 10:45:36;;;;;;;5.38;2.15;;;;;;;22.11;41.25;97455.22;5045212;28;20044;-57
2023/06/28 10:48:04;;;;;;;5.13;1.80;;;;;;;22.44;41.43;97457.44;5043613;28;20141;-57
2023/06/28 10:50:41;;;;;;;5.28;1.45;;;;;;;22.39;41.06;97459.56;5050437;28;20040;-54
2023/06/28 10:53:22;;;;;;;4.60;1.50;;;;;;;22.31;40.92;97452.91;5042360;28;20095;-56
2023/06/28 10:56:09;;;;;;;4.72;1.45;;;;;;;22.70;41.00;97447.50;5044617;28;20048;-56
2023/06/28 10:58:41;;;;;;;8.27;1.90;;;;;;;22.98;40.34;97452.56;5046997;28;20041;-52
2023/06/28 11:01:10;;;;;;;4.53;1.63;;;;;;;23.29;39.11;97456.13;5040589;28;20575;-56
2023/06/28 11:03:44;;;;;;;4.43;1.70;;;;;;;22.92;39.46;97449.16;5049703;28;20565;-57
2023/06/28 11:06:12;;;;;;;5.43;1.75;;;;;;;23.10;39.50;97446.31;5037984;28;20073;-57
2023/06/28 11:08:44;;;;;;;6.30;1.50;;;;;;;23.06;39.60;97443.44;5043250;28;20122;-58
2023/06/28 11:11:21;;;;;;;;;;;;;;;22.78;39.86;97445.84;5040250;28;20048;-57
2023/06/28 11:13:50;;;;;;;5.65;1.73;;;;;;;22.18;40.59;97449.19;5038723;28;20015;-57
2023/06/28 11:16:19;;;;;;;3.53;1.52;;;;;;;22.43;40.77;97446.72;5040823;28;20683;-57
2023/06/28 11:18:47;;;;;;;5.65;1.67;;;;;;;22.85;40.32;97455.22;5046261;28;20044;-57
2023/06/28 11:21:16;;;;;;;8.60;1.70;;;;;;;22.89;40.77;97449.84;5044464;28;20104;-57
2023/06/28 11:23:45;;;;;;;6.10;2.38;;;;;;;23.35;38.98;97447.34;5041809;28;20064;-57
2023/06/28 11:26:34;;;;;;;5.10;1.63;;;;;;;23.32;39.91;97444.41;5041927;28;20048;-57
2023/06/28 11:29:00;;;;;;;4.13;1.58;;;;;;;23.62;39.39;97444.41;5040939;28;20076;-57
2023/06/28 11:31:33;;;;;;;5.00;1.65;;;;;;;23.77;39.29;97451.28;5045311;28;20128;-57
2023/06/28 11:34:01;;;;;;;5.95;1.80;;;;;;;23.44;39.86;97444.50;5044725;28;20036;-57
2023/06/28 11:36:28;;;;;;;11.82;1.83;;;;;;;23.32;40.15;97447.16;5045033;28;20106;-57